createdAt,value
2022-12-19T00:01:19.704Z,31.08
2022-12-19T00:03:48.940Z,31.70
2022-12-19T00:06:16.745Z,33.47
2022-12-19T00:08:45.774Z,31.17
2022-12-19T00:11:14.030Z,30.27
2022-12-19T00:13:41.454Z,30.88
2022-12-19T00:16:15.894Z,32.33
2022-12-19T00:18:46.747Z,31.05
2022-12-19T00:21:16.914Z,30.75
2022-12-19T00:26:16.544Z,29.98
2022-12-19T00:28:46.311Z,31.83
2022-12-19T00:31:15.675Z,30.30
2022-12-19T00:33:43.667Z,31.95
2022-12-19T00:36:22.522Z,33.97
2022-12-19T00:38:51.191Z,29.13
2022-12-19T00:41:22.609Z,30.67
2022-12-19T00:43:55.991Z,30.08
2022-12-19T00:46:22.864Z,30.58
2022-12-19T00:48:49.328Z,31.50
2022-12-19T00:51:23.300Z,32.40
2022-12-19T00:53:51.161Z,29.13
2022-12-19T00:56:20.948Z,33.15
2022-12-19T00:58:47.907Z,32.00
2022-12-19T01:01:20.695Z,29.23
2022-12-19T01:04:18.580Z,31.15
2022-12-19T01:06:34.738Z,32.28
2022-12-19T01:09:01.413Z,29.98
2022-12-19T01:11:46.712Z,33.47
2022-12-19T01:14:20.711Z,31.33
2022-12-19T01:16:48.915Z,28.45
2022-12-19T01:19:15.581Z,30.45
2022-12-19T01:21:42.276Z,31.02
2022-12-19T01:24:10.352Z,30.42
2022-12-19T01:26:36.785Z,32.08
2022-12-19T01:29:04.532Z,29.25
2022-12-19T01:31:31.086Z,32.65
2022-12-19T01:33:59.535Z,32.22
2022-12-19T01:36:26.085Z,30.60
2022-12-19T01:38:56.054Z,29.85
2022-12-19T01:41:22.457Z,30.25
2022-12-19T01:43:55.073Z,30.98
2022-12-19T01:46:40.204Z,29.92
2022-12-19T01:49:13.590Z,29.88
2022-12-19T01:51:44.825Z,31.33
2022-12-19T01:54:15.705Z,31.25
2022-12-19T01:56:48.610Z,32.30
2022-12-19T01:59:21.267Z,31.92
2022-12-19T02:01:51.597Z,32.55
2022-12-19T02:04:20.327Z,28.52
2022-12-19T02:06:48.270Z,30.90
2022-12-19T02:09:14.790Z,30.80
2022-12-19T02:11:41.323Z,29.95
2022-12-19T02:14:07.715Z,31.10
2022-12-19T02:16:58.706Z,31.60
2022-12-19T02:19:56.126Z,29.48
2022-12-19T02:22:58.350Z,29.27
2022-12-19T02:25:48.672Z,30.85
2022-12-19T02:28:34.664Z,29.05
2022-12-19T02:31:27.459Z,31.10
2022-12-19T02:34:27.470Z,30.38
2022-12-19T02:37:05.738Z,28.55
2022-12-19T02:39:41.676Z,29.67
2022-12-19T02:42:12.858Z,31.73
2022-12-19T02:44:46.451Z,29.48
2022-12-19T02:47:14.805Z,32.50
2022-12-19T02:49:41.269Z,31.85
2022-12-19T02:52:13.396Z,31.42
2022-12-19T02:54:43.523Z,31.75
2022-12-19T02:57:36.304Z,32.30
2022-12-19T03:00:13.912Z,29.85
2022-12-19T03:03:06.587Z,30.38
2022-12-19T03:05:59.967Z,30.70
2022-12-19T03:08:37.119Z,35.08
2022-12-19T03:11:14.689Z,31.58
2022-12-19T03:13:50.953Z,30.83
2022-12-19T03:16:17.362Z,30.27
2022-12-19T03:18:44.284Z,30.08
2022-12-19T03:21:13.594Z,30.98
2022-12-19T03:23:40.605Z,29.53
2022-12-19T03:26:12.331Z,30.42
2022-12-19T03:28:53.871Z,28.48
2022-12-19T03:31:24.560Z,30.83
2022-12-19T03:33:56.707Z,33.38
2022-12-19T03:36:30.657Z,29.85
2022-12-19T03:38:59.805Z,29.38
2022-12-19T03:41:45.795Z,30.90
2022-12-19T03:44:14.789Z,31.27
2022-12-19T03:46:46.749Z,31.00
2022-12-19T03:49:13.608Z,30.08
2022-12-19T03:51:56.392Z,32.53
2022-12-19T03:54:29.518Z,33.42
2022-12-19T03:59:35.822Z,31.10
2022-12-19T04:02:04.344Z,30.42
2022-12-19T04:04:34.835Z,29.65
2022-12-19T04:07:03.972Z,31.60
2022-12-19T04:09:32.029Z,31.35
2022-12-19T04:12:05.387Z,29.70
2022-12-19T04:14:34.967Z,31.15
2022-12-19T04:17:12.590Z,32.42
2022-12-19T04:19:47.907Z,30.75
2022-12-19T04:22:23.562Z,32.58
2022-12-19T04:24:52.584Z,29.42
2022-12-19T04:27:20.575Z,30.02
2022-12-19T04:29:48.379Z,28.48
2022-12-19T04:32:15.123Z,29.65
2022-12-19T04:34:42.979Z,33.83
2022-12-19T04:37:11.188Z,31.63
2022-12-19T04:39:37.763Z,31.05
2022-12-19T04:42:04.405Z,29.48
2022-12-19T04:44:31.007Z,30.98
2022-12-19T04:46:57.425Z,30.13
2022-12-19T04:49:23.886Z,28.92
2022-12-19T04:51:50.862Z,32.40
2022-12-19T04:54:17.313Z,31.52
2022-12-19T04:56:43.742Z,30.10
2022-12-19T04:59:10.470Z,29.42
2022-12-19T05:01:37.065Z,30.17
2022-12-19T05:04:04.824Z,32.95
2022-12-19T05:06:31.444Z,29.63
2022-12-19T05:08:57.856Z,28.48
2022-12-19T05:11:24.288Z,28.98
2022-12-19T05:13:50.748Z,28.58
2022-12-19T05:16:17.462Z,29.85
2022-12-19T05:18:44.436Z,29.13
2022-12-19T05:21:11.250Z,30.60
2022-12-19T05:23:38.186Z,30.65
2022-12-19T05:26:05.598Z,28.73
2022-12-19T05:28:32.690Z,30.77
2022-12-19T05:31:13.555Z,29.88
2022-12-19T05:33:41.143Z,30.17
2022-12-19T05:36:08.569Z,30.08
2022-12-19T05:38:35.496Z,29.83
2022-12-19T05:41:15.524Z,28.67
2022-12-19T05:43:42.758Z,29.73
2022-12-19T05:46:09.326Z,29.90
2022-12-19T05:48:36.317Z,28.77
2022-12-19T05:51:03.058Z,29.08
2022-12-19T05:53:29.602Z,30.17
2022-12-19T05:56:10.284Z,28.88
2022-12-19T05:58:38.826Z,29.35
2022-12-19T06:01:20.389Z,30.50
2022-12-19T06:03:47.245Z,29.08
2022-12-19T06:06:15.955Z,32.22
2022-12-19T06:08:42.953Z,30.23
2022-12-19T06:11:11.152Z,29.70
2022-12-19T06:13:38.498Z,28.30
2022-12-19T06:16:12.812Z,31.02
2022-12-19T06:18:44.551Z,28.70
2022-12-19T06:21:29.631Z,29.05
2022-12-19T06:23:56.447Z,28.75
2022-12-19T06:26:23.461Z,29.92
2022-12-19T06:28:51.881Z,29.33
2022-12-19T06:31:20.200Z,30.70
2022-12-19T06:33:46.654Z,32.67
2022-12-19T06:36:20.221Z,28.60
2022-12-19T06:38:47.443Z,29.77
2022-12-19T06:41:33.912Z,29.73
2022-12-19T06:44:01.671Z,28.95
2022-12-19T06:46:28.409Z,28.63
2022-12-19T06:48:54.787Z,30.42
2022-12-19T06:51:21.613Z,29.67
2022-12-19T06:53:48.185Z,28.98
2022-12-19T06:56:16.040Z,28.02
2022-12-19T06:58:42.806Z,30.58
2022-12-19T07:01:19.900Z,29.50
2022-12-19T07:03:48.614Z,31.98
2022-12-19T07:06:15.516Z,28.85
2022-12-19T07:08:41.973Z,33.55
2022-12-19T07:11:08.391Z,32.50
2022-12-19T07:13:34.845Z,32.50
2022-12-19T07:16:04.470Z,33.50
2022-12-19T07:18:34.453Z,30.33
2022-12-19T07:21:01.781Z,34.95
2022-12-19T07:23:28.969Z,32.70
2022-12-19T07:25:55.513Z,33.08
2022-12-19T07:28:21.949Z,30.10
2022-12-19T07:30:48.376Z,35.13
2022-12-19T07:33:21.029Z,32.17
2022-12-19T07:35:48.213Z,31.40
2022-12-19T07:38:14.702Z,31.02
2022-12-19T07:40:41.224Z,30.42
2022-12-19T07:43:07.618Z,33.08
2022-12-19T07:45:37.027Z,33.05
2022-12-19T07:48:05.108Z,31.50
2022-12-19T07:50:31.976Z,32.05
2022-12-19T07:52:58.975Z,29.65
2022-12-19T07:55:26.345Z,31.60
2022-12-19T07:57:53.690Z,30.65
2022-12-19T08:00:20.466Z,30.63
2022-12-19T08:02:47.057Z,31.67
2022-12-19T08:05:13.550Z,31.08
2022-12-19T08:07:40.769Z,29.83
2022-12-19T08:10:08.173Z,30.53
2022-12-19T08:12:34.601Z,31.35
2022-12-19T08:15:01.025Z,33.67
2022-12-19T08:17:27.455Z,33.13
2022-12-19T08:19:53.924Z,32.13
2022-12-19T08:22:20.307Z,34.72
2022-12-19T08:24:46.815Z,36.08
2022-12-19T08:27:16.784Z,35.45
2022-12-19T08:29:43.184Z,37.03
2022-12-19T08:32:09.601Z,34.47
2022-12-19T08:34:36.083Z,35.45
2022-12-19T08:37:02.485Z,35.33
2022-12-19T08:39:28.859Z,38.90
2022-12-19T08:41:55.304Z,37.88
2022-12-19T08:44:30.595Z,34.58
2022-12-19T08:46:57.006Z,35.35
2022-12-19T08:49:23.515Z,36.08
2022-12-19T08:51:49.970Z,35.53
2022-12-19T08:54:16.464Z,44.30
2022-12-19T08:56:46.379Z,44.30
2022-12-19T08:59:20.763Z,45.65
2022-12-19T09:01:57.279Z,49.25
2022-12-19T09:05:59.779Z,44.30
2022-12-19T09:07:10.424Z,43.95
2022-12-19T09:09:36.803Z,44.30
2022-12-19T09:12:03.362Z,44.50
2022-12-19T09:14:33.975Z,44.42
2022-12-19T09:17:00.997Z,44.42
2022-12-19T09:19:30.456Z,45.05
2022-12-19T09:21:57.018Z,43.30
2022-12-19T09:24:23.478Z,43.92
2022-12-19T09:26:49.882Z,45.40
2022-12-19T09:29:19.806Z,49.85
2022-12-19T09:31:51.286Z,47.80
2022-12-19T09:34:37.986Z,44.30
2022-12-19T09:37:10.485Z,45.58
2022-12-19T09:39:47.451Z,48.20
2022-12-19T09:42:42.925Z,46.67
2022-12-19T09:45:31.417Z,47.25
2022-12-19T09:48:00.615Z,46.65
2022-12-19T09:50:36.205Z,45.88
2022-12-19T09:53:10.352Z,45.58
2022-12-19T09:55:41.197Z,50.53
2022-12-19T09:58:30.696Z,46.35
2022-12-19T10:01:02.105Z,47.67
2022-12-19T10:03:45.241Z,50.30
2022-12-19T10:07:16.201Z,47.50
2022-12-19T10:12:20.712Z,46.53
2022-12-19T10:12:47.834Z,48.00
2022-12-19T10:15:29.585Z,48.55
2022-12-19T10:17:58.868Z,49.03
2022-12-19T10:21:09.538Z,46.20
2022-12-19T10:23:58.889Z,46.38
2022-12-19T10:26:54.202Z,44.77
2022-12-19T10:29:23.293Z,44.95
2022-12-19T10:32:06.635Z,46.95
2022-12-19T10:34:39.829Z,47.20
2022-12-19T10:37:43.850Z,48.70
2022-12-19T10:40:27.824Z,43.47
2022-12-19T10:43:30.687Z,43.83
2022-12-19T10:46:10.892Z,45.03
2022-12-19T10:48:37.340Z,46.63
2022-12-19T10:51:06.899Z,43.72
2022-12-19T10:53:33.619Z,44.92
2022-12-19T10:56:02.743Z,46.70
2022-12-19T10:58:37.467Z,45.25
2022-12-19T11:01:24.902Z,45.97
2022-12-19T11:04:11.700Z,45.58
2022-12-19T11:06:38.110Z,48.28
2022-12-19T11:09:21.365Z,46.20
2022-12-19T11:15:49.500Z,48.08
2022-12-19T11:18:34.029Z,47.67
2022-12-19T11:29:15.318Z,46.45
2022-12-19T11:29:26.119Z,46.10
2022-12-19T11:29:39.897Z,46.10
2022-12-19T11:30:43.172Z,46.55
2022-12-19T11:32:44.300Z,46.63
2022-12-19T11:35:36.797Z,44.55
2022-12-19T11:38:06.656Z,47.38
2022-12-19T11:40:46.545Z,43.50
2022-12-19T11:43:46.119Z,49.28
2022-12-19T11:46:25.329Z,46.70
2022-12-19T11:49:08.892Z,47.15
2022-12-19T11:52:03.002Z,46.50
2022-12-19T11:55:02.047Z,46.45
2022-12-19T11:57:28.654Z,47.40
2022-12-19T11:59:59.892Z,48.90
2022-12-19T12:02:49.373Z,49.60
2022-12-19T12:05:30.557Z,50.08
2022-12-19T12:09:40.235Z,49.00
2022-12-19T12:18:43.247Z,50.60
2022-12-19T12:25:01.467Z,48.92
2022-12-19T12:30:57.192Z,48.80
2022-12-19T12:31:09.622Z,48.42
2022-12-19T12:31:42.624Z,48.58
2022-12-19T12:31:43.408Z,46.63
2022-12-19T12:31:55.330Z,51.28
2022-12-19T12:35:51.344Z,47.78
2022-12-19T12:37:51.145Z,47.95
2022-12-19T12:39:00.949Z,49.85
2022-12-19T12:42:03.912Z,50.42
2022-12-19T12:44:44.833Z,49.92
2022-12-19T12:47:21.708Z,50.10
2022-12-19T12:50:04.119Z,49.33
2022-12-19T12:52:42.684Z,47.42
2022-12-19T12:55:31.685Z,49.10
2022-12-19T12:57:59.146Z,46.17
2022-12-19T13:00:27.159Z,51.20
2022-12-19T13:03:18.861Z,48.55
2022-12-19T13:06:03.858Z,47.78
2022-12-19T13:08:48.046Z,49.15
2022-12-19T13:11:38.961Z,47.90
2022-12-19T13:14:26.552Z,49.50
2022-12-19T13:16:54.034Z,46.75
2022-12-19T13:19:33.173Z,50.17
2022-12-19T13:22:07.290Z,53.53
2022-12-19T13:24:42.851Z,50.30
2022-12-19T13:27:18.405Z,49.13
2022-12-19T13:30:00.092Z,50.90
2022-12-19T13:32:33.566Z,48.65
2022-12-19T13:35:20.585Z,48.22
2022-12-19T13:39:59.971Z,50.97
2022-12-19T13:41:25.668Z,51.38
2022-12-19T13:43:59.350Z,48.55
2022-12-19T13:46:42.501Z,52.00
2022-12-19T13:49:19.817Z,52.28
2022-12-19T13:51:50.255Z,54.25
2022-12-19T13:54:41.522Z,52.78
2022-12-19T13:57:30.063Z,52.65
2022-12-19T14:00:03.880Z,49.03
2022-12-19T14:02:44.384Z,49.67
2022-12-19T14:06:17.158Z,52.28
2022-12-19T14:08:28.337Z,52.08
2022-12-19T14:11:37.602Z,49.88
2022-12-19T14:14:16.518Z,50.90
2022-12-19T14:16:46.622Z,52.58
2022-12-19T14:19:24.982Z,53.33
2022-12-19T14:22:09.532Z,51.47
2022-12-19T14:24:39.591Z,52.17
2022-12-19T14:28:19.380Z,52.00
2022-12-19T14:30:27.679Z,52.13
2022-12-19T14:33:39.227Z,53.15
2022-12-19T14:36:06.712Z,53.85
2022-12-19T14:39:20.362Z,51.45
2022-12-19T14:41:48.101Z,56.58
2022-12-19T14:53:08.677Z,51.60
2022-12-19T14:54:07.010Z,63.88
2022-12-19T14:54:10.121Z,55.65
2022-12-19T14:54:20.955Z,72.82
2022-12-19T14:56:13.643Z,69.55
2022-12-19T14:58:53.924Z,61.42
2022-12-19T15:01:30.808Z,61.92
2022-12-19T15:04:47.892Z,58.90
2022-12-19T15:07:06.620Z,64.28
2022-12-19T15:10:59.327Z,57.92
2022-12-19T15:14:52.404Z,70.95
2022-12-19T15:16:24.452Z,62.28
2022-12-19T15:18:54.147Z,65.28
2022-12-19T15:21:20.598Z,55.40
2022-12-19T15:23:47.003Z,55.15
2022-12-19T15:26:34.850Z,55.20
2022-12-19T15:29:01.946Z,54.25
2022-12-19T15:31:42.732Z,57.78
2022-12-19T15:34:40.086Z,59.80
2022-12-19T15:37:13.104Z,56.53
2022-12-19T15:39:40.466Z,66.65
2022-12-19T15:42:17.894Z,64.22
2022-12-19T15:44:46.203Z,66.38
2022-12-19T15:47:18.202Z,79.82
2022-12-19T15:49:44.765Z,67.60
2022-12-19T15:52:17.185Z,63.53
2022-12-19T15:54:48.689Z,76.90
2022-12-19T15:57:35.196Z,68.88
2022-12-19T16:00:07.484Z,62.13
2022-12-19T16:05:22.989Z,63.88
2022-12-19T16:07:49.811Z,60.97
2022-12-19T16:10:17.502Z,58.35
2022-12-19T16:12:48.258Z,60.42
2022-12-19T16:15:24.825Z,53.70
2022-12-19T16:17:51.597Z,59.08
2022-12-19T16:20:21.778Z,57.47
2022-12-19T16:22:48.495Z,55.05
2022-12-19T16:25:16.068Z,55.95
2022-12-19T16:27:43.829Z,57.83
2022-12-19T16:30:20.218Z,57.55
2022-12-19T16:32:47.923Z,53.58
2022-12-19T16:35:34.410Z,74.35
2022-12-19T16:38:03.954Z,71.40
2022-12-19T16:40:30.508Z,77.10
2022-12-19T16:43:05.106Z,55.75
2022-12-19T16:45:33.916Z,54.78
2022-12-19T16:48:00.488Z,62.25
2022-12-19T16:50:29.565Z,57.22
2022-12-19T16:52:56.379Z,56.17
2022-12-19T16:55:25.865Z,53.33
2022-12-19T16:57:55.405Z,54.35
2022-12-19T17:00:23.365Z,51.03
2022-12-19T17:02:51.856Z,51.92
2022-12-19T17:05:29.401Z,54.75
2022-12-19T17:07:56.561Z,53.67
2022-12-19T17:10:30.859Z,49.95
2022-12-19T17:12:59.668Z,50.78
2022-12-19T17:15:32.193Z,51.70
2022-12-19T17:18:01.303Z,50.10
2022-12-19T17:20:32.200Z,52.67
2022-12-19T17:22:58.666Z,47.97
2022-12-19T17:25:27.108Z,54.60
2022-12-19T17:27:55.340Z,51.35
2022-12-19T17:30:22.008Z,50.58
2022-12-19T17:32:52.816Z,48.92
2022-12-19T17:35:27.863Z,48.95
2022-12-19T17:37:56.533Z,48.45
2022-12-19T17:40:26.452Z,59.90
2022-12-19T17:42:53.477Z,51.78
2022-12-19T17:45:21.606Z,53.95
2022-12-19T17:47:49.105Z,50.70
2022-12-19T17:50:29.973Z,50.90
2022-12-19T17:52:56.975Z,49.65
2022-12-19T17:55:28.333Z,47.42
2022-12-19T17:57:55.414Z,49.67
2022-12-19T18:00:30.319Z,46.50
2022-12-19T18:03:01.645Z,47.78
2022-12-19T18:05:31.745Z,46.88
2022-12-19T18:07:58.230Z,48.72
2022-12-19T18:10:27.738Z,46.58
2022-12-19T18:12:54.534Z,48.92
2022-12-19T18:15:22.500Z,47.85
2022-12-19T18:17:50.336Z,45.38
2022-12-19T18:20:32.772Z,50.15
2022-12-19T18:23:03.139Z,46.90
2022-12-19T18:27:58.437Z,47.85
2022-12-19T18:30:25.668Z,47.80
2022-12-19T18:33:01.018Z,45.10
2022-12-19T18:35:40.027Z,48.33
2022-12-19T18:38:15.542Z,45.10
2022-12-19T18:40:42.274Z,46.42
2022-12-19T18:43:14.501Z,46.80
2022-12-19T18:45:50.566Z,48.17
2022-12-19T18:48:26.809Z,48.97
2022-12-19T18:50:53.849Z,47.83
2022-12-19T18:53:23.219Z,45.67
2022-12-19T18:55:51.544Z,45.15
2022-12-19T18:58:19.054Z,44.67
2022-12-19T19:00:49.565Z,44.13
2022-12-19T19:03:21.880Z,42.92
2022-12-19T19:05:48.794Z,43.95
2022-12-19T19:08:26.978Z,45.60
2022-12-19T19:10:55.541Z,51.25
2022-12-19T19:13:24.144Z,46.28
2022-12-19T19:15:58.987Z,48.90
2022-12-19T19:18:36.919Z,45.53
2022-12-19T19:21:05.090Z,45.05
2022-12-19T19:23:38.078Z,46.50
2022-12-19T19:26:05.748Z,47.45
2022-12-19T19:28:32.216Z,46.28
2022-12-19T19:31:00.591Z,52.00
2022-12-19T19:33:32.582Z,46.40
2022-12-19T19:36:09.424Z,46.72
2022-12-19T19:38:38.522Z,46.97
2022-12-19T19:41:05.149Z,47.85
2022-12-19T19:43:35.607Z,47.42
2022-12-19T19:46:02.653Z,46.33
2022-12-19T19:48:29.292Z,48.70
2022-12-19T19:50:55.790Z,44.17
2022-12-19T19:53:22.263Z,46.58
2022-12-19T19:55:56.686Z,47.10
2022-12-19T19:58:23.600Z,47.38
2022-12-19T20:00:50.272Z,45.08
2022-12-19T20:03:22.246Z,41.38
2022-12-19T20:05:49.959Z,40.78
2022-12-19T20:08:16.777Z,41.28
2022-12-19T20:10:43.157Z,47.53
2022-12-19T20:13:11.262Z,52.85
2022-12-19T20:15:37.851Z,49.60
2022-12-19T20:18:04.341Z,43.60
2022-12-19T20:20:33.105Z,40.65
2022-12-19T20:22:59.644Z,41.15
2022-12-19T20:25:26.075Z,41.00
2022-12-19T20:27:52.476Z,40.72
2022-12-19T20:30:19.145Z,41.97
2022-12-19T20:32:45.785Z,39.25
2022-12-19T20:35:14.826Z,38.10
2022-12-19T20:37:41.967Z,36.53
2022-12-19T20:40:09.315Z,38.78
2022-12-19T20:42:35.773Z,35.38
2022-12-19T20:45:02.277Z,35.22
2022-12-19T20:47:28.684Z,34.25
2022-12-19T20:49:55.102Z,34.67
2022-12-19T20:52:21.557Z,34.40
2022-12-19T20:54:47.990Z,33.78
2022-12-19T20:57:14.537Z,33.67
2022-12-19T20:59:40.923Z,32.22
2022-12-19T21:02:07.475Z,30.48
2022-12-19T21:04:34.210Z,31.73
2022-12-19T21:07:00.906Z,30.83
2022-12-19T21:09:27.350Z,31.05
2022-12-19T21:11:53.895Z,30.02
2022-12-19T21:14:20.337Z,29.15
2022-12-19T21:16:46.823Z,28.52
2022-12-19T21:19:13.274Z,26.90
2022-12-19T21:21:39.710Z,29.25
2022-12-19T21:24:06.304Z,27.27
2022-12-19T21:26:32.833Z,26.30
2022-12-19T21:28:59.546Z,26.63
2022-12-19T21:31:28.600Z,26.35
2022-12-19T21:34:01.258Z,27.95
2022-12-19T21:36:28.827Z,25.50
2022-12-19T21:38:57.537Z,25.67
2022-12-19T21:41:25.371Z,26.73
2022-12-19T21:43:54.265Z,25.27
2022-12-19T21:46:23.927Z,25.42
2022-12-19T21:48:52.869Z,26.50
2022-12-19T21:51:21.312Z,24.70
2022-12-19T21:53:52.414Z,25.08
2022-12-19T21:56:34.354Z,24.52
2022-12-19T21:59:04.404Z,25.10
2022-12-19T22:01:31.288Z,25.83
2022-12-19T22:03:59.901Z,25.85
2022-12-19T22:06:29.784Z,26.77
2022-12-19T22:08:56.665Z,28.77
2022-12-19T22:11:23.829Z,26.50
2022-12-19T22:13:51.336Z,28.65
2022-12-19T22:16:18.261Z,28.40
2022-12-19T22:18:45.150Z,26.95
2022-12-19T22:21:14.004Z,25.50
2022-12-19T22:23:41.016Z,25.77
2022-12-19T22:26:11.701Z,27.63
2022-12-19T22:28:40.681Z,26.20
2022-12-19T22:31:34.328Z,26.80
2022-12-19T22:34:16.715Z,24.20
2022-12-19T22:36:43.546Z,26.00
2022-12-19T22:39:13.771Z,26.77
2022-12-19T22:44:07.773Z,24.80
2022-12-19T22:46:36.352Z,24.73
2022-12-19T22:49:05.099Z,25.27
2022-12-19T22:51:34.065Z,26.42
2022-12-19T22:54:01.389Z,25.25
2022-12-19T22:56:30.126Z,25.00
2022-12-19T22:59:00.223Z,24.80
2022-12-19T23:01:32.193Z,24.20
2022-12-19T23:04:03.153Z,25.33
2022-12-19T23:06:31.703Z,24.60
2022-12-19T23:08:58.496Z,23.52
2022-12-19T23:11:29.857Z,24.20
2022-12-19T23:13:56.595Z,24.73
2022-12-19T23:16:23.311Z,24.08
2022-12-19T23:18:49.795Z,22.90
2022-12-19T23:21:19.196Z,23.42
2022-12-19T23:23:47.052Z,22.50
2022-12-19T23:26:16.824Z,23.95
2022-12-19T23:28:49.342Z,24.77
2022-12-19T23:31:16.030Z,23.02
2022-12-19T23:33:42.444Z,23.73
2022-12-19T23:36:10.207Z,24.15
2022-12-19T23:38:36.883Z,23.85
2022-12-19T23:41:05.734Z,22.92
2022-12-19T23:43:33.527Z,22.65
2022-12-19T23:46:00.227Z,22.30
2022-12-19T23:48:28.371Z,22.95
2022-12-19T23:51:02.935Z,22.73
2022-12-19T23:53:30.154Z,22.42
2022-12-19T23:55:56.684Z,22.92
2022-12-19T23:58:24.938Z,22.25
